Time;durP1;ratioP1;P1;durP2;ratioP2;P2;SDS_P1;SDS_P2;PMS_P1;PMS_P2;Temp;Humidity;BMP_temperature;BMP_pressure;BME280_temperature;BME280_humidity;BME280_pressure;Samples;Min_cycle;Max_cycle;Signal;HPM_P1;HPM_P2
2021/12/27 00:00:45;;;;;;;23.85;14.05;;;;;;;;;;4998444;28;20041;-69
2021/12/27 00:03:11;;;;;;;21.00;12.95;;;;;;;;;;4983295;28;20529;-69
2021/12/27 00:05:37;;;;;;;20.67;12.93;;;;;;;;;;4996710;28;20053;-69
2021/12/27 00:08:04;;;;;;;22.88;13.52;;;;;;;;;;4990130;28;20519;-68
2021/12/27 00:10:30;;;;;;;21.10;12.68;;;;;;;;;;4999505;28;20046;-69
2021/12/27 00:12:57;;;;;;;19.75;13.07;;;;;;;;;;5002341;28;20049;-68
2021/12/27 00:15:24;;;;;;;20.80;13.00;;;;;;;;;;4992929;28;20052;-69
2021/12/27 00:17:50;;;;;;;19.23;11.98;;;;;;;;;;4997552;28;20053;-69
2021/12/27 00:20:18;;;;;;;20.27;12.30;;;;;;;;;;4995274;28;20045;-69
2021/12/27 00:22:48;;;;;;;18.98;12.45;;;;;;;;;;5002834;28;20057;-69
2021/12/27 00:25:14;;;;;;;21.17;12.55;;;;;;;;;;4998138;28;20081;-69
2021/12/27 00:27:41;;;;;;;24.60;13.75;;;;;;;;;;4999094;28;20140;-69
2021/12/27 00:30:08;;;;;;;20.85;12.90;;;;;;;;;;4999229;28;20163;-69
2021/12/27 00:32:36;;;;;;;25.70;13.40;;;;;;;;;;4992458;28;20049;-69
2021/12/27 00:35:06;;;;;;;22.25;13.32;;;;;;;;;;5006542;28;20053;-69
2021/12/27 00:37:33;;;;;;;25.02;12.73;;;;;;;;;;4988153;28;20517;-69
2021/12/27 00:39:59;;;;;;;20.52;12.82;;;;;;;;;;4995948;28;20137;-69
2021/12/27 00:42:26;;;;;;;22.38;12.90;;;;;;;;;;5004904;28;20492;-69
2021/12/27 00:44:52;;;;;;;22.42;13.57;;;;;;;;;;4989517;28;20053;-69
2021/12/27 00:47:19;;;;;;;22.65;13.05;;;;;;;;;;4998406;28;20093;-68
2021/12/27 00:49:45;;;;;;;17.27;11.65;;;;;;;;;;4993512;28;20061;-69
2021/12/27 00:52:11;;;;;;;22.75;13.05;;;;;;;;;;5003904;28;20056;-69
2021/12/27 00:54:38;;;;;;;21.17;13.77;;;;;;;;;;4997425;28;20902;-69
2021/12/27 00:57:04;;;;;;;21.02;12.93;;;;;;;;;;5000227;28;20062;-69
2021/12/27 00:59:31;;;;;;;18.63;11.77;;;;;;;;;;4997412;28;20057;-69
2021/12/27 01:01:57;;;;;;;19.95;12.40;;;;;;;;;;4995847;28;20075;-69
2021/12/27 01:04:24;;;;;;;21.52;12.85;;;;;;;;;;5006534;28;20366;-69
2021/12/27 01:06:50;;;;;;;23.73;12.93;;;;;;;;;;4999864;28;20052;-68
2021/12/27 01:09:31;;;;;;;20.50;12.40;;;;;;;;;;5023559;28;20442;-69
2021/12/27 01:15:22;;;;;;;19.55;12.32;;;;;;;;;;4944271;28;20102;-69
2021/12/27 01:17:50;;;;;;;20.42;12.48;;;;;;;;;;5007035;28;20045;-69
2021/12/27 01:20:23;;;;;;;26.35;13.85;;;;;;;;;;5022577;28;20857;-70
2021/12/27 01:22:50;;;;;;;21.58;13.05;;;;;;;;;;5017678;28;20422;-69
2021/12/27 01:25:16;;;;;;;21.13;12.98;;;;;;;;;;4998518;28;20071;-69
2021/12/27 01:27:43;;;;;;;23.70;13.45;;;;;;;;;;5016130;28;20053;-69
2021/12/27 01:30:11;;;;;;;20.63;12.75;;;;;;;;;;5013456;28;20060;-69
2021/12/27 01:32:45;;;;;;;19.55;11.82;;;;;;;;;;5022013;28;20061;-69
2021/12/27 01:35:12;;;;;;;20.65;12.50;;;;;;;;;;4995293;28;20060;-68
2021/12/27 01:37:39;;;;;;;21.58;12.90;;;;;;;;;;5003173;28;20049;-69
2021/12/27 01:40:06;;;;;;;20.38;11.73;;;;;;;;;;4992438;28;20057;-69
2021/12/27 01:42:32;;;;;;;20.83;11.85;;;;;;;;;;5008308;28;20057;-70
2021/12/27 01:44:58;;;;;;;25.27;13.60;;;;;;;;;;5009120;28;20061;-70
2021/12/27 01:47:27;;;;;;;19.40;12.40;;;;;;;;;;5003082;28;20061;-70
2021/12/27 01:49:53;;;;;;;;;;;;;;;;;;5021881;28;20053;-69
2021/12/27 01:52:20;;;;;;;19.77;11.90;;;;;;;;;;5014201;28;19925;-69
2021/12/27 01:54:46;;;;;;;16.42;10.75;;;;;;;;;;5004415;28;20487;-70
2021/12/27 01:57:13;;;;;;;18.88;10.45;;;;;;;;;;5016863;28;20049;-69
2021/12/27 01:59:39;;;;;;;18.73;11.00;;;;;;;;;;4995761;28;20065;-69
2021/12/27 02:02:05;;;;;;;18.27;11.35;;;;;;;;;;5021999;28;20529;-69
2021/12/27 02:04:32;;;;;;;17.98;11.15;;;;;;;;;;5012925;28;20053;-69
2021/12/27 02:06:59;;;;;;;21.65;12.40;;;;;;;;;;5003701;28;20573;-69
2021/12/27 02:09:35;;;;;;;22.30;12.57;;;;;;;;;;5006675;28;20703;-68
2021/12/27 02:12:01;;;;;;;18.80;11.95;;;;;;;;;;5015231;28;20053;-68
2021/12/27 02:14:28;;;;;;;18.42;12.13;;;;;;;;;;5021177;28;20053;-68
2021/12/27 02:16:54;;;;;;;21.85;12.20;;;;;;;;;;5012535;28;20053;-67
2021/12/27 02:19:20;;;;;;;17.27;11.73;;;;;;;;;;5021727;28;20053;-68
2021/12/27 02:21:47;;;;;;;19.10;11.43;;;;;;;;;;5010606;28;20971;-67
2021/12/27 02:24:13;;;;;;;20.08;12.48;;;;;;;;;;5017336;28;20049;-67
2021/12/27 02:26:40;;;;;;;17.10;11.65;;;;;;;;;;5013472;28;20053;-67
2021/12/27 02:29:09;;;;;;;19.17;11.52;;;;;;;;;;5011600;28;20057;-67
2021/12/27 02:31:39;;;;;;;19.15;12.00;;;;;;;;;;5022187;28;20046;-67
2021/12/27 02:34:08;;;;;;;18.20;11.27;;;;;;;;;;5013381;28;20127;-67
2021/12/27 02:36:34;;;;;;;17.35;10.05;;;;;;;;;;5016757;28;20080;-68
2021/12/27 02:39:01;;;;;;;16.63;10.25;;;;;;;;;;5001566;28;20240;-68
2021/12/27 02:41:27;;;;;;;21.27;11.75;;;;;;;;;;5017368;28;20618;-68
2021/12/27 02:43:53;;;;;;;19.90;10.60;;;;;;;;;;5012498;28;20462;-68
2021/12/27 02:46:20;;;;;;;18.65;11.38;;;;;;;;;;5009767;28;20569;-68
2021/12/27 02:48:47;;;;;;;17.70;10.93;;;;;;;;;;4977521;28;20510;-68
2021/12/27 02:51:14;;;;;;;18.67;10.65;;;;;;;;;;5005050;28;20403;-68
2021/12/27 02:53:41;;;;;;;16.70;10.73;;;;;;;;;;5010519;28;20050;-67
2021/12/27 02:56:08;;;;;;;19.48;11.57;;;;;;;;;;4998435;28;20049;-68
2021/12/27 02:58:35;;;;;;;18.63;11.40;;;;;;;;;;5021236;28;20076;-68
2021/12/27 03:01:06;;;;;;;18.63;11.38;;;;;;;;;;5012992;28;20486;-68
2021/12/27 03:03:33;;;;;;;16.38;10.27;;;;;;;;;;5015193;28;20045;-68
2021/12/27 03:06:00;;;;;;;18.23;10.48;;;;;;;;;;5016661;28;20053;-68
2021/12/27 03:08:27;;;;;;;17.48;10.05;;;;;;;;;;5011883;28;20053;-68
2021/12/27 03:10:58;;;;;;;16.98;10.57;;;;;;;;;;5019080;28;20068;-67
2021/12/27 03:13:25;;;;;;;16.83;10.85;;;;;;;;;;4996389;28;20049;-69
2021/12/27 03:15:53;;;;;;;20.13;11.00;;;;;;;;;;5005278;28;20072;-68
2021/12/27 03:18:20;;;;;;;19.50;11.20;;;;;;;;;;4999213;28;20092;-68
2021/12/27 03:20:47;;;;;;;17.90;10.57;;;;;;;;;;5019629;28;20057;-68
2021/12/27 03:23:14;;;;;;;18.60;11.60;;;;;;;;;;5020773;28;20045;-68
2021/12/27 03:25:40;;;;;;;16.13;10.43;;;;;;;;;;4998406;28;20050;-67
2021/12/27 03:28:07;;;;;;;16.85;10.93;;;;;;;;;;5006605;28;20623;-68
2021/12/27 03:30:34;;;;;;;17.63;10.00;;;;;;;;;;5000607;28;20045;-68
2021/12/27 03:33:02;;;;;;;16.60;10.25;;;;;;;;;;5019457;28;20041;-67
2021/12/27 03:35:35;;;;;;;17.63;10.95;;;;;;;;;;5020143;28;20053;-67
2021/12/27 03:38:02;;;;;;;18.63;11.05;;;;;;;;;;5016071;28;20285;-67
2021/12/27 03:40:29;;;;;;;18.20;11.40;;;;;;;;;;5018294;28;20064;-68
2021/12/27 03:42:55;;;;;;;20.70;11.25;;;;;;;;;;5007144;28;20060;-68
2021/12/27 03:45:28;;;;;;;21.77;12.00;;;;;;;;;;5007669;28;20042;-68
2021/12/27 03:47:54;;;;;;;20.50;11.73;;;;;;;;;;5014887;28;20045;-68
2021/12/27 03:50:21;;;;;;;17.83;10.82;;;;;;;;;;5024565;28;20057;-68
2021/12/27 03:52:47;;;;;;;16.80;10.65;;;;;;;;;;5023773;28;20076;-68
2021/12/27 03:55:13;;;;;;;15.57;10.35;;;;;;;;;;5015429;28;20064;-68
2021/12/27 03:57:42;;;;;;;16.48;11.15;;;;;;;;;;5013404;28;20502;-68
2021/12/27 04:00:26;;;;;;;18.02;10.43;;;;;;;;;;5005282;28;20482;-68
2021/12/27 04:02:54;;;;;;;17.45;10.95;;;;;;;;;;5006087;28;20060;-69
2021/12/27 04:05:21;;;;;;;19.02;10.63;;;;;;;;;;5015061;28;20053;-69
2021/12/27 04:07:56;;;;;;;18.13;11.98;;;;;;;;;;5026062;28;20045;-69
2021/12/27 04:10:22;;;;;;;16.65;10.75;;;;;;;;;;5004035;28;20053;-69
2021/12/27 04:12:48;;;;;;;17.60;10.32;;;;;;;;;;5026875;28;20056;-69
2021/12/27 04:15:15;;;;;;;16.42;10.15;;;;;;;;;;5023562;28;20049;-69
2021/12/27 04:17:41;;;;;;;19.00;10.50;;;;;;;;;;5015179;28;20050;-69
2021/12/27 04:20:07;;;;;;;19.63;10.93;;;;;;;;;;5024084;28;20053;-69
2021/12/27 04:22:34;;;;;;;19.42;11.25;;;;;;;;;;5016407;28;20439;-69
2021/12/27 04:25:12;;;;;;;;;;;;;;;;;;4998340;28;20138;-69
2021/12/27 04:27:39;;;;;;;17.90;10.13;;;;;;;;;;5012123;28;19925;-68
2021/12/27 04:30:05;;;;;;;15.98;10.48;;;;;;;;;;4992060;28;20046;-69
2021/12/27 04:32:31;;;;;;;19.45;12.18;;;;;;;;;;5022918;28;20052;-69
2021/12/27 04:34:58;;;;;;;20.20;11.32;;;;;;;;;;5014978;28;20049;-69
2021/12/27 04:37:24;;;;;;;16.85;11.70;;;;;;;;;;5022648;28;20052;-69
2021/12/27 04:39:50;;;;;;;17.30;9.98;;;;;;;;;;5004967;28;20276;-69
2021/12/27 04:42:17;;;;;;;22.38;11.57;;;;;;;;;;5022623;28;20042;-69
2021/12/27 04:44:43;;;;;;;19.38;12.05;;;;;;;;;;5018915;28;20072;-68
2021/12/27 04:47:12;;;;;;;21.05;11.55;;;;;;;;;;5007715;28;20076;-69
2021/12/27 04:49:39;;;;;;;18.15;11.40;;;;;;;;;;5022478;28;20060;-69
2021/12/27 04:52:05;;;;;;;21.10;11.55;;;;;;;;;;5010873;28;20533;-70
2021/12/27 04:54:31;;;;;;;22.38;12.52;;;;;;;;;;5015445;28;20049;-70
2021/12/27 04:56:58;;;;;;;23.52;11.45;;;;;;;;;;5005496;28;20512;-69
2021/12/27 04:59:24;;;;;;;23.05;12.45;;;;;;;;;;5022893;28;20053;-70
2021/12/27 05:01:50;;;;;;;21.85;11.25;;;;;;;;;;5023032;28;20582;-69
2021/12/27 05:04:17;;;;;;;19.63;11.60;;;;;;;;;;5015636;28;20064;-69
2021/12/27 05:06:44;;;;;;;18.27;11.02;;;;;;;;;;5019626;28;20469;-69
2021/12/27 05:09:11;;;;;;;24.30;11.63;;;;;;;;;;5011155;28;20053;-69
2021/12/27 05:11:37;;;;;;;20.42;12.07;;;;;;;;;;5023876;28;20061;-69
2021/12/27 05:14:03;;;;;;;18.55;11.73;;;;;;;;;;5014597;28;20148;-69
2021/12/27 05:16:29;;;;;;;21.83;11.55;;;;;;;;;;4997295;28;20049;-69
2021/12/27 05:18:56;;;;;;;20.17;11.38;;;;;;;;;;5022791;28;20053;-69
2021/12/27 05:21:22;;;;;;;18.50;11.27;;;;;;;;;;5004040;28;20479;-69
2021/12/27 05:23:49;;;;;;;17.00;10.45;;;;;;;;;;5014658;28;20049;-69
2021/12/27 05:26:15;;;;;;;22.38;11.60;;;;;;;;;;5015025;28;20510;-70
2021/12/27 05:28:41;;;;;;;19.00;12.02;;;;;;;;;;5017290;28;20050;-69
2021/12/27 05:31:08;;;;;;;17.73;10.85;;;;;;;;;;5005993;28;20366;-69
2021/12/27 05:33:34;;;;;;;19.52;11.75;;;;;;;;;;5020226;28;20136;-69
2021/12/27 05:36:00;;;;;;;18.90;11.70;;;;;;;;;;5014789;28;20057;-69
2021/12/27 05:38:27;;;;;;;16.33;11.38;;;;;;;;;;5029642;28;20054;-69
2021/12/27 05:40:54;;;;;;;19.80;10.98;;;;;;;;;;5019751;28;20422;-69
2021/12/27 05:43:21;;;;;;;16.50;11.30;;;;;;;;;;5015291;28;20068;-69
2021/12/27 05:45:47;;;;;;;18.27;11.13;;;;;;;;;;5008492;28;20060;-69
2021/12/27 05:48:15;;;;;;;18.20;11.25;;;;;;;;;;5008544;28;20417;-69
2021/12/27 05:50:42;;;;;;;18.27;11.70;;;;;;;;;;5016568;28;20429;-69
2021/12/27 05:53:09;;;;;;;18.45;11.90;;;;;;;;;;5021564;28;20053;-69
2021/12/27 05:55:35;;;;;;;20.95;12.23;;;;;;;;;;5014044;28;20507;-69
2021/12/27 05:58:02;;;;;;;21.50;11.35;;;;;;;;;;5021735;28;20062;-69
2021/12/27 06:00:29;;;;;;;17.67;10.95;;;;;;;;;;5028793;28;20418;-69
2021/12/27 06:02:55;;;;;;;17.15;11.18;;;;;;;;;;5005171;28;20050;-69
2021/12/27 06:05:22;;;;;;;17.42;10.93;;;;;;;;;;5004359;28;20796;-70
2021/12/27 06:07:49;;;;;;;18.17;11.57;;;;;;;;;;4982826;28;20049;-70
2021/12/27 06:10:15;;;;;;;21.50;13.00;;;;;;;;;;5011301;28;20474;-70
2021/12/27 06:12:42;;;;;;;19.45;12.00;;;;;;;;;;5013867;28;20053;-70
2021/12/27 06:15:08;;;;;;;18.95;11.38;;;;;;;;;;5022488;28;20056;-70
2021/12/27 06:17:35;;;;;;;19.48;11.68;;;;;;;;;;5008305;28;20045;-70
2021/12/27 06:20:03;;;;;;;18.25;11.88;;;;;;;;;;5018629;28;20045;-69
2021/12/27 06:22:30;;;;;;;18.40;11.20;;;;;;;;;;5008317;28;20088;-69
2021/12/27 06:24:58;;;;;;;18.80;12.18;;;;;;;;;;5001803;28;20041;-69
2021/12/27 06:27:25;;;;;;;18.05;12.40;;;;;;;;;;5005075;28;20058;-69
2021/12/27 06:29:51;;;;;;;17.27;10.93;;;;;;;;;;4995709;28;20369;-69
2021/12/27 06:32:18;;;;;;;19.45;11.45;;;;;;;;;;5002022;28;20049;-69
2021/12/27 06:34:44;;;;;;;20.45;12.43;;;;;;;;;;4994579;28;20055;-69
2021/12/27 06:37:10;;;;;;;18.20;12.25;;;;;;;;;;5002140;28;20335;-69
2021/12/27 06:39:37;;;;;;;19.17;12.38;;;;;;;;;;5000018;28;20054;-69
2021/12/27 06:42:05;;;;;;;20.25;13.02;;;;;;;;;;5001242;28;20148;-69
2021/12/27 06:44:32;;;;;;;19.65;11.93;;;;;;;;;;5017774;28;20509;-69
2021/12/27 06:46:59;;;;;;;21.00;12.85;;;;;;;;;;5011729;28;20045;-69
2021/12/27 06:49:29;;;;;;;20.60;13.30;;;;;;;;;;5020868;28;20076;-69
2021/12/27 06:51:55;;;;;;;22.35;13.48;;;;;;;;;;5002813;28;20394;-69
2021/12/27 06:54:21;;;;;;;20.60;13.02;;;;;;;;;;5002181;28;20052;-69
2021/12/27 06:56:48;;;;;;;25.88;14.15;;;;;;;;;;5000650;28;20050;-69
2021/12/27 06:59:14;;;;;;;20.25;13.18;;;;;;;;;;4994460;28;20050;-69
2021/12/27 07:01:41;;;;;;;22.70;13.63;;;;;;;;;;5012520;28;20421;-70
2021/12/27 07:04:08;;;;;;;23.95;13.45;;;;;;;;;;5013221;28;20126;-70
2021/12/27 07:06:34;;;;;;;21.45;12.57;;;;;;;;;;5003462;28;20050;-70
2021/12/27 07:09:01;;;;;;;20.35;12.23;;;;;;;;;;5011058;28;20041;-69
2021/12/27 07:11:28;;;;;;;18.92;12.80;;;;;;;;;;5012603;28;20052;-69
2021/12/27 07:13:54;;;;;;;19.25;11.90;;;;;;;;;;5002583;28;20521;-69
2021/12/27 07:16:20;;;;;;;17.23;11.95;;;;;;;;;;4995433;28;20089;-69
2021/12/27 07:18:47;;;;;;;20.80;12.35;;;;;;;;;;4999596;28;20056;-69
2021/12/27 07:21:13;;;;;;;22.20;12.75;;;;;;;;;;4995982;28;20045;-69
2021/12/27 07:23:39;;;;;;;19.17;12.35;;;;;;;;;;5019466;28;20049;-69
2021/12/27 07:26:05;;;;;;;19.77;11.85;;;;;;;;;;5012647;28;20064;-69
2021/12/27 07:28:32;;;;;;;22.70;12.45;;;;;;;;;;5019299;28;20068;-69
2021/12/27 07:30:58;;;;;;;19.38;12.43;;;;;;;;;;5019350;28;20053;-69
2021/12/27 07:33:24;;;;;;;17.25;11.57;;;;;;;;;;5006794;28;20053;-69
2021/12/27 07:35:50;;;;;;;19.90;12.73;;;;;;;;;;5016411;28;20050;-69
2021/12/27 07:38:17;;;;;;;21.98;12.35;;;;;;;;;;5012283;28;20057;-69
2021/12/27 07:40:43;;;;;;;20.23;10.80;;;;;;;;;;5018387;28;20049;-71
2021/12/27 07:43:09;;;;;;;18.80;11.35;;;;;;;;;;5011800;28;20056;-70
2021/12/27 07:45:36;;;;;;;17.95;11.68;;;;;;;;;;5013321;28;20049;-70
2021/12/27 07:48:07;;;;;;;20.27;13.02;;;;;;;;;;5013571;28;20057;-70
2021/12/27 07:50:34;;;;;;;16.05;10.23;;;;;;;;;;5013601;28;20504;-70
2021/12/27 07:53:00;;;;;;;18.73;11.90;;;;;;;;;;5019360;28;20509;-70
2021/12/27 07:55:27;;;;;;;18.75;12.27;;;;;;;;;;5006270;28;20057;-70
2021/12/27 07:57:54;;;;;;;17.92;12.05;;;;;;;;;;5021261;28;20057;-70
2021/12/27 08:00:20;;;;;;;19.05;12.50;;;;;;;;;;5008963;28;20050;-70
2021/12/27 08:02:47;;;;;;;19.92;11.98;;;;;;;;;;5015019;28;20060;-70
2021/12/27 08:05:16;;;;;;;16.90;11.23;;;;;;;;;;5016604;28;20045;-70
2021/12/27 08:07:43;;;;;;;14.80;10.63;;;;;;;;;;5009082;28;20053;-70
2021/12/27 08:10:10;;;;;;;15.05;9.57;;;;;;;;;;5020295;28;20056;-70
2021/12/27 08:12:37;;;;;;;18.08;11.30;;;;;;;;;;5012887;28;20395;-70
2021/12/27 08:15:04;;;;;;;19.50;11.65;;;;;;;;;;5012924;28;20053;-70
2021/12/27 08:17:30;;;;;;;14.77;10.27;;;;;;;;;;5011459;28;20519;-70
2021/12/27 08:19:57;;;;;;;17.17;10.57;;;;;;;;;;5020097;28;20364;-70
2021/12/27 08:22:23;;;;;;;15.60;10.07;;;;;;;;;;5013319;28;20057;-70
2021/12/27 08:24:50;;;;;;;15.70;9.98;;;;;;;;;;5009600;28;20049;-70
2021/12/27 08:27:16;;;;;;;14.68;10.30;;;;;;;;;;5016537;28;20292;-70
2021/12/27 08:29:43;;;;;;;15.30;10.40;;;;;;;;;;5006544;28;20798;-70
2021/12/27 08:32:09;;;;;;;15.75;10.60;;;;;;;;;;5019372;28;20045;-70
2021/12/27 08:34:36;;;;;;;17.50;10.15;;;;;;;;;;5016215;28;20049;-70
2021/12/27 08:37:02;;;;;;;14.95;10.00;;;;;;;;;;5022860;28;20053;-70
2021/12/27 08:39:29;;;;;;;14.73;9.90;;;;;;;;;;5022296;28;20417;-70
2021/12/27 08:41:55;;;;;;;15.40;10.23;;;;;;;;;;5011930;28;20042;-70
2021/12/27 08:44:21;;;;;;;17.33;10.43;;;;;;;;;;5017641;28;20045;-70
2021/12/27 08:46:48;;;;;;;14.07;9.63;;;;;;;;;;4990539;28;20053;-70
2021/12/27 08:49:14;;;;;;;13.90;9.57;;;;;;;;;;5039949;28;20056;-70
2021/12/27 08:51:41;;;;;;;12.98;8.25;;;;;;;;;;5016046;28;20660;-70
2021/12/27 08:54:07;;;;;;;14.68;9.75;;;;;;;;;;5023708;28;20057;-70
2021/12/27 08:56:34;;;;;;;11.30;7.25;;;;;;;;;;5011019;28;20053;-70
2021/12/27 08:59:00;;;;;;;16.13;9.68;;;;;;;;;;5009941;28;20060;-70
2021/12/27 09:01:27;;;;;;;13.07;8.68;;;;;;;;;;5021306;28;20069;-70
2021/12/27 09:03:53;;;;;;;12.55;8.00;;;;;;;;;;5014948;28;20045;-70
2021/12/27 09:06:20;;;;;;;13.48;9.13;;;;;;;;;;5022761;28;20471;-71
2021/12/27 09:08:46;;;;;;;13.35;8.25;;;;;;;;;;5022152;28;20049;-70
2021/12/27 09:11:12;;;;;;;12.75;9.18;;;;;;;;;;5009349;28;20045;-70
2021/12/27 09:13:38;;;;;;;14.68;8.43;;;;;;;;;;5021364;28;20049;-70
2021/12/27 09:16:05;;;;;;;13.57;8.63;;;;;;;;;;5014717;28;20052;-70
2021/12/27 09:18:33;;;;;;;15.00;9.70;;;;;;;;;;5023262;28;20494;-70
2021/12/27 09:21:00;;;;;;;14.02;9.48;;;;;;;;;;5012444;28;20049;-70
2021/12/27 09:23:26;;;;;;;14.80;9.40;;;;;;;;;;5014649;28;20056;-70
2021/12/27 09:25:52;;;;;;;14.05;9.43;;;;;;;;;;5021318;28;20458;-70
2021/12/27 09:28:19;;;;;;;14.18;9.30;;;;;;;;;;5011767;28;20046;-71
2021/12/27 09:30:45;;;;;;;14.95;9.95;;;;;;;;;;5022162;28;20056;-70
2021/12/27 09:33:12;;;;;;;14.32;8.88;;;;;;;;;;5014354;28;20059;-70
2021/12/27 09:35:38;;;;;;;13.60;8.23;;;;;;;;;;5018559;28;20064;-70
2021/12/27 09:38:05;;;;;;;14.43;9.52;;;;;;;;;;5011748;28;20060;-70
2021/12/27 09:40:31;;;;;;;12.93;8.93;;;;;;;;;;5020789;28;20487;-70
2021/12/27 09:42:57;;;;;;;13.98;8.93;;;;;;;;;;5021597;28;20045;-70
2021/12/27 09:45:24;;;;;;;12.82;8.68;;;;;;;;;;5003724;28;20451;-71
2021/12/27 09:47:51;;;;;;;14.45;9.75;;;;;;;;;;5018668;28;20045;-70
2021/12/27 09:50:28;;;;;;;15.45;9.15;;;;;;;;;;5008771;28;20046;-70
2021/12/27 09:52:55;;;;;;;13.55;9.00;;;;;;;;;;5016842;28;20124;-70
2021/12/27 09:55:21;;;;;;;13.50;8.93;;;;;;;;;;5005270;28;20103;-70
2021/12/27 09:57:47;;;;;;;12.18;7.88;;;;;;;;;;5020097;28;20049;-70
2021/12/27 10:00:14;;;;;;;16.40;9.38;;;;;;;;;;5023203;28;20500;-71
2021/12/27 10:02:40;;;;;;;13.70;9.40;;;;;;;;;;5014206;28;20050;-71
2021/12/27 10:05:07;;;;;;;12.80;8.18;;;;;;;;;;5017135;28;20057;-70
2021/12/27 10:07:35;;;;;;;11.02;7.03;;;;;;;;;;5009787;28;20371;-70
2021/12/27 10:10:15;;;;;;;14.20;8.60;;;;;;;;;;5021672;28;20053;-71
2021/12/27 10:12:41;;;;;;;13.85;8.07;;;;;;;;;;5012976;28;20045;-70
2021/12/27 10:15:12;;;;;;;12.27;6.90;;;;;;;;;;5022300;28;20135;-70
2021/12/27 10:17:42;;;;;;;12.63;8.43;;;;;;;;;;5017996;28;20053;-70
2021/12/27 10:20:09;;;;;;;13.30;8.98;;;;;;;;;;5014257;28;20049;-70
2021/12/27 10:22:42;;;;;;;13.27;8.43;;;;;;;;;;5021839;28;20049;-71
2021/12/27 10:25:16;;;;;;;14.40;7.65;;;;;;;;;;5002124;28;20425;-71
2021/12/27 10:27:43;;;;;;;16.05;9.57;;;;;;;;;;5004102;28;20046;-71
2021/12/27 10:30:14;;;;;;;14.52;9.02;;;;;;;;;;4998414;28;20049;-71
2021/12/27 10:32:40;;;;;;;12.82;8.55;;;;;;;;;;5001719;28;20591;-70
2021/12/27 10:35:08;;;;;;;15.35;9.40;;;;;;;;;;4999967;28;20053;-70
2021/12/27 10:37:49;;;;;;;16.70;9.02;;;;;;;;;;5021437;28;20061;-70
2021/12/27 10:40:15;;;;;;;12.55;8.27;;;;;;;;;;5019482;28;20445;-71
2021/12/27 10:42:43;;;;;;;12.73;7.78;;;;;;;;;;5013641;28;20565;-71
2021/12/27 10:45:12;;;;;;;12.23;8.30;;;;;;;;;;5004962;28;20056;-71
2021/12/27 10:47:38;;;;;;;11.45;7.15;;;;;;;;;;4988704;28;20041;-71
2021/12/27 10:50:08;;;;;;;10.85;6.90;;;;;;;;;;5006721;28;20050;-71
2021/12/27 10:52:54;;;;;;;11.68;8.07;;;;;;;;;;4997426;28;20108;-71
2021/12/27 10:55:22;;;;;;;14.95;8.70;;;;;;;;;;5002665;28;20048;-71
2021/12/27 10:57:49;;;;;;;13.20;8.88;;;;;;;;;;5004044;28;20073;-71
2021/12/27 11:00:18;;;;;;;13.45;8.35;;;;;;;;;;4993938;28;20451;-71
2021/12/27 11:02:45;;;;;;;14.60;8.90;;;;;;;;;;4999772;28;20053;-70
2021/12/27 11:05:12;;;;;;;14.32;8.82;;;;;;;;;;4994154;28;20041;-71
2021/12/27 11:07:39;;;;;;;14.07;9.30;;;;;;;;;;5007830;28;20046;-71
2021/12/27 11:10:06;;;;;;;13.60;8.60;;;;;;;;;;4999928;28;20050;-71
2021/12/27 11:12:32;;;;;;;12.48;8.70;;;;;;;;;;5005570;28;20045;-71
2021/12/27 11:14:59;;;;;;;9.77;7.10;;;;;;;;;;4998589;28;20684;-71
2021/12/27 11:17:25;;;;;;;11.48;7.90;;;;;;;;;;4994919;28;20523;-71
2021/12/27 11:19:52;;;;;;;11.93;7.97;;;;;;;;;;5007552;28;20492;-71
2021/12/27 11:22:18;;;;;;;12.45;8.45;;;;;;;;;;5001196;28;20140;-71
2021/12/27 11:24:44;;;;;;;12.73;8.00;;;;;;;;;;5021096;28;20455;-70
2021/12/27 11:27:12;;;;;;;12.15;8.38;;;;;;;;;;5013956;28;20049;-71
2021/12/27 11:29:38;;;;;;;11.63;7.90;;;;;;;;;;5010912;28;20045;-71
2021/12/27 11:32:14;;;;;;;14.25;8.52;;;;;;;;;;5014811;28;20049;-70
2021/12/27 11:34:53;;;;;;;12.70;8.00;;;;;;;;;;4994448;28;20107;-71
2021/12/27 11:37:20;;;;;;;15.00;9.07;;;;;;;;;;5013106;28;20049;-71
2021/12/27 11:39:46;;;;;;;11.65;7.28;;;;;;;;;;4998562;28;20042;-71
2021/12/27 11:42:17;;;;;;;11.70;8.02;;;;;;;;;;5001244;28;20046;-71
2021/12/27 11:44:53;;;;;;;10.52;7.00;;;;;;;;;;4989123;28;20428;-71
2021/12/27 11:47:24;;;;;;;10.93;6.45;;;;;;;;;;5004506;28;20060;-71
2021/12/27 11:49:50;;;;;;;13.05;8.40;;;;;;;;;;4998833;28;20348;-71
2021/12/27 11:52:23;;;;;;;15.15;8.77;;;;;;;;;;5004535;28;20049;-70
2021/12/27 11:54:49;;;;;;;10.98;7.38;;;;;;;;;;5005716;28;20050;-71
2021/12/27 11:57:36;;;;;;;13.23;7.90;;;;;;;;;;4990632;28;20469;-70
2021/12/27 12:00:23;;;;;;;16.42;8.65;;;;;;;;;;4994690;28;20042;-70
2021/12/27 12:02:51;;;;;;;17.48;10.93;;;;;;;;;;4981024;28;20420;-71
2021/12/27 12:05:36;;;;;;;14.77;9.47;;;;;;;;;;5008422;28;20469;-70
2021/12/27 12:08:03;;;;;;;15.93;9.20;;;;;;;;;;4995755;28;20574;-70
2021/12/27 12:10:31;;;;;;;12.63;7.43;;;;;;;;;;5001139;28;20554;-71
2021/12/27 12:13:16;;;;;;;11.60;8.27;;;;;;;;;;4999483;28;20045;-70
2021/12/27 12:16:02;;;;;;;11.30;7.55;;;;;;;;;;5018168;28;20478;-71
2021/12/27 12:18:30;;;;;;;12.90;9.38;;;;;;;;;;5017112;28;20049;-71
2021/12/27 12:20:57;;;;;;;12.55;8.38;;;;;;;;;;5021077;28;20056;-71
2021/12/27 12:23:53;;;;;;;10.73;6.88;;;;;;;;;;5010665;28;20049;-71
2021/12/27 12:26:20;;;;;;;12.05;8.10;;;;;;;;;;5008488;28;20057;-71
2021/12/27 12:28:47;;;;;;;15.18;8.70;;;;;;;;;;5009178;28;20057;-71
2021/12/27 12:31:14;;;;;;;13.93;7.53;;;;;;;;;;5006611;28;20151;-71
2021/12/27 12:33:41;;;;;;;11.40;7.60;;;;;;;;;;5007096;28;20419;-71
2021/12/27 12:36:07;;;;;;;14.73;8.32;;;;;;;;;;4997280;28;20053;-70
2021/12/27 12:38:34;;;;;;;11.77;7.50;;;;;;;;;;5008963;28;20053;-70
2021/12/27 12:41:10;;;;;;;10.95;6.90;;;;;;;;;;5003018;28;20383;-71
2021/12/27 12:43:41;;;;;;;13.02;8.23;;;;;;;;;;4992213;28;20053;-71
2021/12/27 12:46:11;;;;;;;13.85;9.02;;;;;;;;;;5007868;28;20411;-71
2021/12/27 12:48:37;;;;;;;16.85;9.15;;;;;;;;;;4991526;28;20052;-71
2021/12/27 12:51:04;;;;;;;20.83;11.27;;;;;;;;;;5001513;28;20056;-71
2021/12/27 12:53:31;;;;;;;15.05;9.05;;;;;;;;;;4994120;28;20053;-71
2021/12/27 12:56:01;;;;;;;14.65;8.20;;;;;;;;;;5004983;28;20041;-71
2021/12/27 12:58:45;;;;;;;14.98;8.70;;;;;;;;;;5005357;28;20370;-71
2021/12/27 13:01:12;;;;;;;11.98;8.10;;;;;;;;;;5000665;28;20396;-71
2021/12/27 13:03:38;;;;;;;11.98;8.15;;;;;;;;;;4998281;28;20077;-71
2021/12/27 13:06:07;;;;;;;11.30;7.93;;;;;;;;;;4997034;28;20046;-71
2021/12/27 13:08:33;;;;;;;12.13;8.70;;;;;;;;;;5003579;28;20508;-71
2021/12/27 13:11:02;;;;;;;12.23;8.63;;;;;;;;;;5000625;28;20049;-71
2021/12/27 13:13:29;;;;;;;12.68;8.43;;;;;;;;;;5010850;28;20431;-71
2021/12/27 13:15:57;;;;;;;12.35;8.48;;;;;;;;;;5000159;28;20422;-71
2021/12/27 13:18:25;;;;;;;13.63;8.02;;;;;;;;;;4995593;28;20142;-70
2021/12/27 13:21:01;;;;;;;12.40;7.72;;;;;;;;;;5004600;28;20025;-71
2021/12/27 13:23:29;;;;;;;10.48;6.68;;;;;;;;;;5000574;28;20609;-70
2021/12/27 13:26:02;;;;;;;8.02;6.03;;;;;;;;;;5003849;28;20060;-71
2021/12/27 13:28:34;;;;;;;10.48;6.90;;;;;;;;;;4996412;28;20061;-71
2021/12/27 13:31:02;;;;;;;12.25;8.07;;;;;;;;;;4999098;28;20060;-71
2021/12/27 13:33:28;;;;;;;;;;;;;;;;;;4998627;28;20108;-70
2021/12/27 13:35:56;;;;;;;14.63;7.70;;;;;;;;;;5001707;28;19925;-71
2021/12/27 13:38:22;;;;;;;11.10;6.10;;;;;;;;;;5003303;28;20053;-71
2021/12/27 13:41:00;;;;;;;9.48;6.90;;;;;;;;;;4994055;28;20049;-71
2021/12/27 13:43:26;;;;;;;10.67;7.47;;;;;;;;;;5005829;28;20058;-71
2021/12/27 13:45:53;;;;;;;11.05;7.63;;;;;;;;;;4990800;28;20403;-71
2021/12/27 13:48:29;;;;;;;10.93;7.30;;;;;;;;;;5007743;28;20152;-71
2021/12/27 13:50:56;;;;;;;12.63;7.40;;;;;;;;;;4995400;28;20045;-71
2021/12/27 13:53:22;;;;;;;10.77;7.57;;;;;;;;;;5002315;28;20521;-71
2021/12/27 13:55:48;;;;;;;11.98;8.90;;;;;;;;;;5001727;28;20050;-71
2021/12/27 13:58:17;;;;;;;11.57;7.60;;;;;;;;;;4989955;28;20152;-71
2021/12/27 14:00:44;;;;;;;11.48;7.95;;;;;;;;;;5000841;28;20053;-71
2021/12/27 14:03:23;;;;;;;12.60;8.68;;;;;;;;;;5001448;28;20131;-71
2021/12/27 14:05:54;;;;;;;13.82;8.73;;;;;;;;;;5004813;28;20133;-71
2021/12/27 14:08:20;;;;;;;14.40;7.90;;;;;;;;;;4999817;28;20049;-71
2021/12/27 14:11:03;;;;;;;12.80;7.95;;;;;;;;;;5003725;28;20585;-71
2021/12/27 14:13:52;;;;;;;16.90;10.95;;;;;;;;;;4997117;28;20370;-70
2021/12/27 14:16:23;;;;;;;15.10;10.25;;;;;;;;;;5008600;28;20049;-71
2021/12/27 14:19:08;;;;;;;16.20;9.38;;;;;;;;;;5002946;28;20398;-71
2021/12/27 14:21:52;;;;;;;19.23;11.27;;;;;;;;;;5001211;28;20050;-71
2021/12/27 14:24:27;;;;;;;13.60;8.82;;;;;;;;;;5008895;28;20089;-71
2021/12/27 14:26:53;;;;;;;14.00;8.18;;;;;;;;;;4992330;28;20912;-70
2021/12/27 14:29:21;;;;;;;16.70;9.55;;;;;;;;;;5002329;28;20425;-70
2021/12/27 14:31:48;;;;;;;13.30;8.90;;;;;;;;;;4995603;28;20050;-69